sensor_id;sensor_type;location;lat;lon;timestamp;pressure;altitude;pressure_sealevel;temperature;humidity
68822;BME280;55834;50.870;4.606;2023-07-09T00:00:20;100979.28;;;23.85;46.05
68822;BME280;55834;50.870;4.606;2023-07-09T00:02:46;100977.75;;;23.81;46.33
68822;BME280;55834;50.870;4.606;2023-07-09T00:05:14;100983.16;;;23.81;46.27
68822;BME280;55834;50.870;4.606;2023-07-09T00:07:40;100983.16;;;23.81;46.69
68822;BME280;55834;50.870;4.606;2023-07-09T00:10:18;100983.41;;;23.67;46.83
68822;BME280;55834;50.870;4.606;2023-07-09T00:12:44;100985.88;;;23.59;46.66
68822;BME280;55834;50.870;4.606;2023-07-09T00:15:12;100984.88;;;23.60;46.92
68822;BME280;55834;50.870;4.606;2023-07-09T00:17:37;100985.75;;;23.60;46.83
68822;BME280;55834;50.870;4.606;2023-07-09T00:20:06;100992.22;;;23.58;46.93
68822;BME280;55834;50.870;4.606;2023-07-09T00:22:42;100985.47;;;23.52;46.57
68822;BME280;55834;50.870;4.606;2023-07-09T00:25:17;100990.88;;;23.52;47.03
68822;BME280;55834;50.870;4.606;2023-07-09T00:27:43;100991.00;;;23.51;46.95
68822;BME280;55834;50.870;4.606;2023-07-09T00:30:17;100992.09;;;23.48;47.31
68822;BME280;55834;50.870;4.606;2023-07-09T00:32:42;100994.06;;;23.46;46.78
68822;BME280;55834;50.870;4.606;2023-07-09T00:35:09;100992.59;;;23.42;47.11
68822;BME280;55834;50.870;4.606;2023-07-09T00:37:34;100993.09;;;23.36;47.44
68822;BME280;55834;50.870;4.606;2023-07-09T00:40:00;100991.47;;;23.22;48.10
68822;BME280;55834;50.870;4.606;2023-07-09T00:42:25;100989.97;;;23.18;47.99
68822;BME280;55834;50.870;4.606;2023-07-09T00:44:52;100985.53;;;23.17;48.01
68822;BME280;55834;50.870;4.606;2023-07-09T00:47:43;100993.75;;;23.15;48.20
68822;BME280;55834;50.870;4.606;2023-07-09T00:50:46;100983.56;;;23.08;48.21
68822;BME280;55834;50.870;4.606;2023-07-09T00:53:27;100990.03;;;23.05;48.25
68822;BME280;55834;50.870;4.606;2023-07-09T00:55:59;100980.50;;;23.01;47.93
68822;BME280;55834;50.870;4.606;2023-07-09T00:58:28;100994.44;;;22.95;48.60
68822;BME280;55834;50.870;4.606;2023-07-09T01:00:58;100990.16;;;22.92;48.62
68822;BME280;55834;50.870;4.606;2023-07-09T01:05:58;100998.91;;;22.83;48.92
68822;BME280;55834;50.870;4.606;2023-07-09T01:08:24;100996.44;;;22.80;49.20
68822;BME280;55834;50.870;4.606;2023-07-09T01:10:50;101001.81;;;22.80;49.09
68822;BME280;55834;50.870;4.606;2023-07-09T01:13:17;101008.09;;;22.81;49.13
68822;BME280;55834;50.870;4.606;2023-07-09T01:15:45;101003.06;;;22.76;49.65
68822;BME280;55834;50.870;4.606;2023-07-09T01:18:11;101003.91;;;22.77;49.12
68822;BME280;55834;50.870;4.606;2023-07-09T01:20:38;101002.28;;;22.74;49.39
68822;BME280;55834;50.870;4.606;2023-07-09T01:23:04;101000.59;;;22.73;49.30
68822;BME280;55834;50.870;4.606;2023-07-09T01:25:31;101001.16;;;22.65;49.57
68822;BME280;55834;50.870;4.606;2023-07-09T01:27:57;100995.38;;;22.59;50.00
68822;BME280;55834;50.870;4.606;2023-07-09T01:30:30;101001.81;;;22.56;49.96
68822;BME280;55834;50.870;4.606;2023-07-09T01:32:58;101007.09;;;22.58;49.81
68822;BME280;55834;50.870;4.606;2023-07-09T01:35:27;100999.97;;;22.57;49.95
68822;BME280;55834;50.870;4.606;2023-07-09T01:37:55;101001.31;;;22.51;50.68
68822;BME280;55834;50.870;4.606;2023-07-09T01:40:21;101004.81;;;22.40;50.44
68822;BME280;55834;50.870;4.606;2023-07-09T01:42:49;101012.00;;;22.40;49.71
68822;BME280;55834;50.870;4.606;2023-07-09T01:45:15;101003.31;;;22.36;50.56
68822;BME280;55834;50.870;4.606;2023-07-09T01:47:41;101002.47;;;22.36;50.63
68822;BME280;55834;50.870;4.606;2023-07-09T01:50:09;100997.81;;;22.38;50.11
68822;BME280;55834;50.870;4.606;2023-07-09T01:52:36;101008.16;;;22.31;50.89
68822;BME280;55834;50.870;4.606;2023-07-09T01:55:03;101002.16;;;22.27;50.46
68822;BME280;55834;50.870;4.606;2023-07-09T01:57:29;101003.81;;;22.17;51.46
68822;BME280;55834;50.870;4.606;2023-07-09T01:59:59;101002.00;;;22.05;51.96
68822;BME280;55834;50.870;4.606;2023-07-09T02:02:25;101009.88;;;22.08;51.94
68822;BME280;55834;50.870;4.606;2023-07-09T02:04:55;100993.75;;;21.95;52.23
68822;BME280;55834;50.870;4.606;2023-07-09T02:07:22;101003.22;;;22.01;51.89
68822;BME280;55834;50.870;4.606;2023-07-09T02:09:48;101005.59;;;22.05;51.69
68822;BME280;55834;50.870;4.606;2023-07-09T02:12:14;101004.50;;;22.08;51.52
68822;BME280;55834;50.870;4.606;2023-07-09T02:14:40;101011.91;;;22.04;51.67
68822;BME280;55834;50.870;4.606;2023-07-09T02:17:06;101002.00;;;22.05;51.43
68822;BME280;55834;50.870;4.606;2023-07-09T02:19:31;101004.41;;;21.97;51.45
68822;BME280;55834;50.870;4.606;2023-07-09T02:21:57;101002.25;;;21.89;51.25
68822;BME280;55834;50.870;4.606;2023-07-09T02:24:23;101004.16;;;21.87;51.56
68822;BME280;55834;50.870;4.606;2023-07-09T02:26:57;101006.13;;;21.85;51.96
68822;BME280;55834;50.870;4.606;2023-07-09T02:29:24;101000.09;;;21.81;51.46
68822;BME280;55834;50.870;4.606;2023-07-09T02:31:51;100998.25;;;21.82;51.61
68822;BME280;55834;50.870;4.606;2023-07-09T02:34:18;100999.88;;;21.84;51.10
68822;BME280;55834;50.870;4.606;2023-07-09T02:36:44;100993.56;;;21.85;51.62
68822;BME280;55834;50.870;4.606;2023-07-09T02:39:10;100995.47;;;21.83;51.35
68822;BME280;55834;50.870;4.606;2023-07-09T02:41:36;101003.75;;;21.80;51.46
68822;BME280;55834;50.870;4.606;2023-07-09T02:44:02;101002.16;;;21.78;51.87
68822;BME280;55834;50.870;4.606;2023-07-09T02:46:27;101004.97;;;21.76;51.96
68822;BME280;55834;50.870;4.606;2023-07-09T02:48:53;101008.59;;;21.75;51.85
68822;BME280;55834;50.870;4.606;2023-07-09T02:51:18;101000.00;;;21.70;51.96
68822;BME280;55834;50.870;4.606;2023-07-09T02:53:43;101008.19;;;21.69;52.40
68822;BME280;55834;50.870;4.606;2023-07-09T02:56:09;101004.19;;;21.61;52.80
68822;BME280;55834;50.870;4.606;2023-07-09T02:58:34;100997.03;;;21.62;52.06
68822;BME280;55834;50.870;4.606;2023-07-09T03:00:59;101002.72;;;21.57;52.26
68822;BME280;55834;50.870;4.606;2023-07-09T03:03:25;100999.28;;;21.55;52.19
68822;BME280;55834;50.870;4.606;2023-07-09T03:05:50;101004.84;;;21.52;52.42
68822;BME280;55834;50.870;4.606;2023-07-09T03:08:15;101003.47;;;21.47;52.40
68822;BME280;55834;50.870;4.606;2023-07-09T03:10:41;101002.72;;;21.45;52.24
68822;BME280;55834;50.870;4.606;2023-07-09T03:13:06;101003.03;;;21.40;52.32
68822;BME280;55834;50.870;4.606;2023-07-09T03:15:32;101007.00;;;21.34;52.90
68822;BME280;55834;50.870;4.606;2023-07-09T03:17:57;100994.66;;;21.32;52.71
68822;BME280;55834;50.870;4.606;2023-07-09T03:20:23;100998.09;;;21.34;52.28
68822;BME280;55834;50.870;4.606;2023-07-09T03:22:48;100997.97;;;21.35;52.25
68822;BME280;55834;50.870;4.606;2023-07-09T03:25:14;100999.72;;;21.36;52.48
68822;BME280;55834;50.870;4.606;2023-07-09T03:27:39;101002.91;;;21.29;52.98
68822;BME280;55834;50.870;4.606;2023-07-09T03:30:05;101002.03;;;21.28;52.61
68822;BME280;55834;50.870;4.606;2023-07-09T03:32:31;101002.22;;;21.12;52.13
68822;BME280;55834;50.870;4.606;2023-07-09T03:34:56;100995.50;;;21.07;53.26
68822;BME280;55834;50.870;4.606;2023-07-09T03:37:21;101006.88;;;21.10;52.78
68822;BME280;55834;50.870;4.606;2023-07-09T03:39:47;100988.16;;;21.09;52.72
68822;BME280;55834;50.870;4.606;2023-07-09T03:42:12;101001.03;;;21.04;53.06
68822;BME280;55834;50.870;4.606;2023-07-09T03:44:38;101012.09;;;20.99;53.67
68822;BME280;55834;50.870;4.606;2023-07-09T03:47:03;101002.13;;;21.01;53.16
68822;BME280;55834;50.870;4.606;2023-07-09T03:49:29;101009.00;;;20.92;53.42
68822;BME280;55834;50.870;4.606;2023-07-09T03:51:54;101000.94;;;20.92;53.84
68822;BME280;55834;50.870;4.606;2023-07-09T03:54:20;100998.03;;;20.95;53.53
68822;BME280;55834;50.870;4.606;2023-07-09T03:56:45;101003.06;;;21.00;53.69
68822;BME280;55834;50.870;4.606;2023-07-09T03:59:10;101006.81;;;20.98;53.41
68822;BME280;55834;50.870;4.606;2023-07-09T04:01:36;101007.59;;;21.00;53.21
68822;BME280;55834;50.870;4.606;2023-07-09T04:04:02;101004.97;;;20.85;53.92
68822;BME280;55834;50.870;4.606;2023-07-09T04:06:28;101008.22;;;20.90;53.99
68822;BME280;55834;50.870;4.606;2023-07-09T04:08:53;101007.03;;;20.94;53.44
68822;BME280;55834;50.870;4.606;2023-07-09T04:11:18;100993.53;;;20.96;53.95
68822;BME280;55834;50.870;4.606;2023-07-09T04:13:44;100996.00;;;20.99;53.48
68822;BME280;55834;50.870;4.606;2023-07-09T04:16:10;100999.13;;;21.06;53.12
68822;BME280;55834;50.870;4.606;2023-07-09T04:18:36;100998.81;;;21.10;53.01
68822;BME280;55834;50.870;4.606;2023-07-09T04:21:02;100998.56;;;21.01;53.22
68822;BME280;55834;50.870;4.606;2023-07-09T04:23:27;100996.13;;;21.10;52.99
68822;BME280;55834;50.870;4.606;2023-07-09T04:25:52;101005.38;;;21.19;52.67
68822;BME280;55834;50.870;4.606;2023-07-09T04:28:18;101003.22;;;21.24;51.67
68822;BME280;55834;50.870;4.606;2023-07-09T04:30:51;101001.91;;;21.17;52.68
68822;BME280;55834;50.870;4.606;2023-07-09T04:33:18;101001.63;;;21.22;52.44
68822;BME280;55834;50.870;4.606;2023-07-09T04:35:45;101003.41;;;21.21;51.82
68822;BME280;55834;50.870;4.606;2023-07-09T04:38:10;101005.78;;;21.26;51.42
68822;BME280;55834;50.870;4.606;2023-07-09T04:40:36;101008.03;;;21.06;51.69
68822;BME280;55834;50.870;4.606;2023-07-09T04:43:01;101015.63;;;20.18;54.87
68822;BME280;55834;50.870;4.606;2023-07-09T04:45:26;101016.19;;;20.65;54.39
68822;BME280;55834;50.870;4.606;2023-07-09T04:47:52;101008.47;;;21.13;52.77
68822;BME280;55834;50.870;4.606;2023-07-09T04:50:18;101019.50;;;20.95;52.74
68822;BME280;55834;50.870;4.606;2023-07-09T04:52:43;101022.06;;;20.97;53.18
68822;BME280;55834;50.870;4.606;2023-07-09T04:55:09;101016.56;;;21.38;53.10
68822;BME280;55834;50.870;4.606;2023-07-09T04:57:34;101016.69;;;21.62;52.38
68822;BME280;55834;50.870;4.606;2023-07-09T05:00:00;101018.63;;;21.60;52.08
68822;BME280;55834;50.870;4.606;2023-07-09T05:02:25;101019.66;;;21.83;51.72
68822;BME280;55834;50.870;4.606;2023-07-09T05:04:51;101022.13;;;21.99;51.86
68822;BME280;55834;50.870;4.606;2023-07-09T05:07:16;101023.19;;;22.10;51.04
68822;BME280;55834;50.870;4.606;2023-07-09T05:09:42;101022.44;;;22.07;51.62
68822;BME280;55834;50.870;4.606;2023-07-09T05:12:07;101024.44;;;22.29;50.85
68822;BME280;55834;50.870;4.606;2023-07-09T05:14:33;101021.75;;;22.53;51.13
68822;BME280;55834;50.870;4.606;2023-07-09T05:16:59;101014.91;;;22.73;50.76
68822;BME280;55834;50.870;4.606;2023-07-09T05:19:24;101011.69;;;22.92;50.10
68822;BME280;55834;50.870;4.606;2023-07-09T05:21:50;101014.66;;;23.12;50.00
68822;BME280;55834;50.870;4.606;2023-07-09T05:24:15;101019.75;;;23.28;49.67
68822;BME280;55834;50.870;4.606;2023-07-09T05:26:40;101014.91;;;23.44;48.77
68822;BME280;55834;50.870;4.606;2023-07-09T05:29:06;101017.47;;;23.57;48.27
68822;BME280;55834;50.870;4.606;2023-07-09T05:31:32;101019.69;;;23.74;48.73
68822;BME280;55834;50.870;4.606;2023-07-09T05:33:59;101020.06;;;23.92;48.53
68822;BME280;55834;50.870;4.606;2023-07-09T05:36:26;101019.81;;;24.06;47.84
68822;BME280;55834;50.870;4.606;2023-07-09T05:38:52;101030.69;;;24.16;47.18
68822;BME280;55834;50.870;4.606;2023-07-09T05:41:18;101021.38;;;24.31;47.86
68822;BME280;55834;50.870;4.606;2023-07-09T05:43:44;101026.50;;;24.46;47.21
68822;BME280;55834;50.870;4.606;2023-07-09T05:46:10;101023.66;;;24.59;46.91
68822;BME280;55834;50.870;4.606;2023-07-09T05:48:35;101019.84;;;24.61;46.45
68822;BME280;55834;50.870;4.606;2023-07-09T05:51:01;101015.38;;;24.71;46.64
68822;BME280;55834;50.870;4.606;2023-07-09T05:53:26;101016.91;;;24.85;46.32
68822;BME280;55834;50.870;4.606;2023-07-09T05:55:55;101022.41;;;24.95;44.22
68822;BME280;55834;50.870;4.606;2023-07-09T05:58:21;101027.63;;;25.08;45.55
68822;BME280;55834;50.870;4.606;2023-07-09T06:00:50;101023.00;;;25.19;45.48
68822;BME280;55834;50.870;4.606;2023-07-09T06:03:19;101020.97;;;25.33;45.51
68822;BME280;55834;50.870;4.606;2023-07-09T06:05:44;101022.88;;;25.42;45.52
68822;BME280;55834;50.870;4.606;2023-07-09T06:08:10;101029.19;;;25.52;45.28
68822;BME280;55834;50.870;4.606;2023-07-09T06:10:38;101022.03;;;25.62;45.27
68822;BME280;55834;50.870;4.606;2023-07-09T06:13:03;101026.47;;;25.73;44.89
68822;BME280;55834;50.870;4.606;2023-07-09T06:15:28;101035.63;;;25.82;44.60
68822;BME280;55834;50.870;4.606;2023-07-09T06:17:54;101032.84;;;25.93;44.71
68822;BME280;55834;50.870;4.606;2023-07-09T06:20:19;101039.56;;;26.08;44.41
68822;BME280;55834;50.870;4.606;2023-07-09T06:22:45;101038.63;;;26.19;44.44
68822;BME280;55834;50.870;4.606;2023-07-09T06:25:10;101044.19;;;26.27;44.20
68822;BME280;55834;50.870;4.606;2023-07-09T06:27:35;101039.09;;;26.34;43.72
68822;BME280;55834;50.870;4.606;2023-07-09T06:30:01;101040.53;;;26.38;43.92
68822;BME280;55834;50.870;4.606;2023-07-09T06:32:26;101049.38;;;26.50;43.41
68822;BME280;55834;50.870;4.606;2023-07-09T06:34:51;101053.06;;;26.39;42.85
68822;BME280;55834;50.870;4.606;2023-07-09T06:37:17;101063.63;;;26.42;43.04
68822;BME280;55834;50.870;4.606;2023-07-09T06:39:42;101058.22;;;26.52;42.42
68822;BME280;55834;50.870;4.606;2023-07-09T06:42:08;101057.88;;;26.36;41.62
68822;BME280;55834;50.870;4.606;2023-07-09T06:44:33;101065.34;;;25.30;44.20
68822;BME280;55834;50.870;4.606;2023-07-09T06:46:58;101061.91;;;25.70;44.73
68822;BME280;55834;50.870;4.606;2023-07-09T06:49:24;101068.31;;;26.09;43.58
68822;BME280;55834;50.870;4.606;2023-07-09T06:51:49;101071.88;;;26.50;43.13
68822;BME280;55834;50.870;4.606;2023-07-09T06:54:15;101067.09;;;26.73;42.07
68822;BME280;55834;50.870;4.606;2023-07-09T06:56:41;101062.84;;;26.81;40.88
68822;BME280;55834;50.870;4.606;2023-07-09T06:59:06;101060.09;;;26.71;40.21
68822;BME280;55834;50.870;4.606;2023-07-09T07:01:31;101073.41;;;26.74;40.89
68822;BME280;55834;50.870;4.606;2023-07-09T07:03:57;101057.84;;;26.86;40.39
68822;BME280;55834;50.870;4.606;2023-07-09T07:06:23;101060.84;;;26.92;40.73
68822;BME280;55834;50.870;4.606;2023-07-09T07:08:49;101060.53;;;27.05;40.08
68822;BME280;55834;50.870;4.606;2023-07-09T07:11:14;101052.13;;;27.08;40.64
68822;BME280;55834;50.870;4.606;2023-07-09T07:13:40;101050.09;;;26.62;39.55
68822;BME280;55834;50.870;4.606;2023-07-09T07:16:11;101054.13;;;26.87;39.58
68822;BME280;55834;50.870;4.606;2023-07-09T07:18:37;101052.31;;;27.26;39.89
68822;BME280;55834;50.870;4.606;2023-07-09T07:21:03;101051.34;;;27.55;39.14
68822;BME280;55834;50.870;4.606;2023-07-09T07:23:29;101051.41;;;27.26;38.24
68822;BME280;55834;50.870;4.606;2023-07-09T07:25:54;101053.41;;;27.14;39.64
68822;BME280;55834;50.870;4.606;2023-07-09T07:28:20;101064.69;;;26.80;39.75
68822;BME280;55834;50.870;4.606;2023-07-09T07:30:45;101060.41;;;25.87;40.32
68822;BME280;55834;50.870;4.606;2023-07-09T07:33:13;101062.56;;;26.24;40.76
68822;BME280;55834;50.870;4.606;2023-07-09T07:35:39;101053.97;;;25.57;41.23
68822;BME280;55834;50.870;4.606;2023-07-09T07:38:04;101058.22;;;25.71;40.96
68822;BME280;55834;50.870;4.606;2023-07-09T07:40:30;101058.00;;;25.63;41.85
68822;BME280;55834;50.870;4.606;2023-07-09T07:42:55;101045.22;;;25.65;43.43
68822;BME280;55834;50.870;4.606;2023-07-09T07:45:21;101063.91;;;26.08;39.69
68822;BME280;55834;50.870;4.606;2023-07-09T07:47:46;101062.16;;;26.28;39.75
68822;BME280;55834;50.870;4.606;2023-07-09T07:50:13;101058.97;;;26.14;40.10
68822;BME280;55834;50.870;4.606;2023-07-09T07:52:38;101063.63;;;26.62;39.60
68822;BME280;55834;50.870;4.606;2023-07-09T07:55:05;101055.13;;;26.95;38.25
68822;BME280;55834;50.870;4.606;2023-07-09T07:57:33;101058.28;;;26.21;41.17
68822;BME280;55834;50.870;4.606;2023-07-09T07:59:58;101048.00;;;27.24;39.94
68822;BME280;55834;50.870;4.606;2023-07-09T08:02:24;101047.00;;;27.72;39.54
68822;BME280;55834;50.870;4.606;2023-07-09T08:04:49;101050.59;;;27.82;39.35
68822;BME280;55834;50.870;4.606;2023-07-09T08:07:18;101052.34;;;28.01;38.97
68822;BME280;55834;50.870;4.606;2023-07-09T08:09:45;101053.94;;;27.56;37.34
68822;BME280;55834;50.870;4.606;2023-07-09T08:12:11;101059.91;;;26.03;39.93
68822;BME280;55834;50.870;4.606;2023-07-09T08:14:38;101058.38;;;27.48;40.51
68822;BME280;55834;50.870;4.606;2023-07-09T08:17:05;101051.69;;;27.89;40.26
68822;BME280;55834;50.870;4.606;2023-07-09T08:19:31;101045.16;;;27.72;38.03
68822;BME280;55834;50.870;4.606;2023-07-09T08:21:57;101046.69;;;28.22;37.35
68822;BME280;55834;50.870;4.606;2023-07-09T08:24:22;101050.19;;;28.60;37.36
68822;BME280;55834;50.870;4.606;2023-07-09T08:26:48;101052.94;;;28.32;36.42
68822;BME280;55834;50.870;4.606;2023-07-09T08:29:13;101047.09;;;27.23;39.20
68822;BME280;55834;50.870;4.606;2023-07-09T08:31:39;101044.41;;;27.52;39.35
68822;BME280;55834;50.870;4.606;2023-07-09T08:34:06;101046.28;;;27.13;40.35
68822;BME280;55834;50.870;4.606;2023-07-09T08:36:31;101049.41;;;26.69;39.86
68822;BME280;55834;50.870;4.606;2023-07-09T08:38:56;101050.28;;;26.80;39.15
68822;BME280;55834;50.870;4.606;2023-07-09T08:41:35;101050.56;;;27.35;39.12
68822;BME280;55834;50.870;4.606;2023-07-09T08:46:59;101035.38;;;27.52;39.89
68822;BME280;55834;50.870;4.606;2023-07-09T08:49:41;101050.47;;;26.28;41.38
68822;BME280;55834;50.870;4.606;2023-07-09T08:54:55;101053.19;;;26.28;40.62
68822;BME280;55834;50.870;4.606;2023-07-09T08:57:25;101028.63;;;27.65;40.66
68822;BME280;55834;50.870;4.606;2023-07-09T08:59:57;101036.88;;;27.83;37.82
68822;BME280;55834;50.870;4.606;2023-07-09T09:02:43;101044.41;;;26.65;40.75
68822;BME280;55834;50.870;4.606;2023-07-09T09:05:19;101031.25;;;27.95;39.20
68822;BME280;55834;50.870;4.606;2023-07-09T09:07:51;101033.19;;;28.58;37.96
68822;BME280;55834;50.870;4.606;2023-07-09T09:10:19;101027.44;;;27.87;39.12
68822;BME280;55834;50.870;4.606;2023-07-09T09:13:05;101036.72;;;27.28;40.00
68822;BME280;55834;50.870;4.606;2023-07-09T09:15:37;101024.84;;;27.96;38.86
68822;BME280;55834;50.870;4.606;2023-07-09T09:18:31;101021.72;;;27.24;40.54
68822;BME280;55834;50.870;4.606;2023-07-09T09:21:09;101022.69;;;28.17;39.35
68822;BME280;55834;50.870;4.606;2023-07-09T09:23:46;101026.34;;;26.85;39.57
68822;BME280;55834;50.870;4.606;2023-07-09T09:26:31;101040.97;;;26.34;42.02
68822;BME280;55834;50.870;4.606;2023-07-09T09:28:58;101036.56;;;26.62;40.86
68822;BME280;55834;50.870;4.606;2023-07-09T09:31:26;101035.56;;;27.11;40.24
68822;BME280;55834;50.870;4.606;2023-07-09T09:33:52;101045.84;;;27.37;39.01
68822;BME280;55834;50.870;4.606;2023-07-09T09:36:23;101064.75;;;26.49;40.45
68822;BME280;55834;50.870;4.606;2023-07-09T09:38:49;101061.41;;;27.35;39.86
68822;BME280;55834;50.870;4.606;2023-07-09T09:41:30;101052.47;;;28.37;38.71
68822;BME280;55834;50.870;4.606;2023-07-09T09:43:56;101062.50;;;28.26;40.20
68822;BME280;55834;50.870;4.606;2023-07-09T09:46:25;101067.72;;;27.73;38.86
68822;BME280;55834;50.870;4.606;2023-07-09T09:48:58;101076.16;;;27.70;38.39
68822;BME280;55834;50.870;4.606;2023-07-09T09:51:24;101070.13;;;28.68;38.22
68822;BME280;55834;50.870;4.606;2023-07-09T09:53:52;101076.94;;;28.72;37.55
68822;BME280;55834;50.870;4.606;2023-07-09T09:56:27;101073.84;;;28.22;36.27
68822;BME280;55834;50.870;4.606;2023-07-09T09:58:55;101077.13;;;27.88;37.93
68822;BME280;55834;50.870;4.606;2023-07-09T10:01:28;101079.44;;;28.66;38.88
68822;BME280;55834;50.870;4.606;2023-07-09T10:03:58;101090.03;;;27.57;38.16
68822;BME280;55834;50.870;4.606;2023-07-09T10:06:44;101103.34;;;27.97;36.63
68822;BME280;55834;50.870;4.606;2023-07-09T10:09:19;101102.59;;;27.58;38.33
68822;BME280;55834;50.870;4.606;2023-07-09T10:14:53;101083.75;;;28.03;36.73
68822;BME280;55834;50.870;4.606;2023-07-09T10:17:42;101083.13;;;27.72;37.83
68822;BME280;55834;50.870;4.606;2023-07-09T10:23:42;101085.28;;;27.78;36.68
68822;BME280;55834;50.870;4.606;2023-07-09T10:26:31;101091.09;;;28.21;37.69
68822;BME280;55834;50.870;4.606;2023-07-09T10:34:42;101102.41;;;28.53;36.91
68822;BME280;55834;50.870;4.606;2023-07-09T10:40:14;101110.97;;;26.67;39.76
68822;BME280;55834;50.870;4.606;2023-07-09T10:42:45;101122.03;;;27.24;38.67
68822;BME280;55834;50.870;4.606;2023-07-09T10:45:16;101138.28;;;27.53;38.10
68822;BME280;55834;50.870;4.606;2023-07-09T10:47:54;101141.84;;;27.34;38.56
68822;BME280;55834;50.870;4.606;2023-07-09T10:50:31;101145.06;;;26.80;40.02
68822;BME280;55834;50.870;4.606;2023-07-09T10:53:04;101152.13;;;27.21;39.64
68822;BME280;55834;50.870;4.606;2023-07-09T10:55:47;101163.66;;;27.13;40.12
68822;BME280;55834;50.870;4.606;2023-07-09T10:58:31;101182.03;;;26.90;40.00
68822;BME280;55834;50.870;4.606;2023-07-09T11:00:59;101189.19;;;26.91;39.82
68822;BME280;55834;50.870;4.606;2023-07-09T11:05:57;101210.88;;;26.30;41.30
68822;BME280;55834;50.870;4.606;2023-07-09T11:08:37;101205.22;;;26.73;41.57
68822;BME280;55834;50.870;4.606;2023-07-09T11:11:09;101193.69;;;26.71;40.69
68822;BME280;55834;50.870;4.606;2023-07-09T11:13:43;101195.41;;;25.90;41.90
68822;BME280;55834;50.870;4.606;2023-07-09T11:16:20;101196.28;;;25.58;42.45
68822;BME280;55834;50.870;4.606;2023-07-09T11:18:55;101189.66;;;25.51;42.37
68822;BME280;55834;50.870;4.606;2023-07-09T11:21:22;101181.09;;;26.30;42.39
68822;BME280;55834;50.870;4.606;2023-07-09T11:23:53;101184.50;;;26.22;42.18
68822;BME280;55834;50.870;4.606;2023-07-09T11:26:33;101178.56;;;26.38;41.22
68822;BME280;55834;50.870;4.606;2023-07-09T11:31:44;101172.31;;;25.54;43.13
68822;BME280;55834;50.870;4.606;2023-07-09T11:42:32;101165.38;;;25.93;43.55
68822;BME280;55834;50.870;4.606;2023-07-09T11:45:12;101169.84;;;26.25;42.59
68822;BME280;55834;50.870;4.606;2023-07-09T11:48:23;101169.41;;;26.60;41.30
68822;BME280;55834;50.870;4.606;2023-07-09T11:50:34;101170.75;;;26.14;42.25
68822;BME280;55834;50.870;4.606;2023-07-09T11:55:45;101170.75;;;25.51;42.88
68822;BME280;55834;50.870;4.606;2023-07-09T11:58:13;101169.97;;;26.02;41.36
68822;BME280;55834;50.870;4.606;2023-07-09T12:00:42;101171.28;;;25.87;42.00
68822;BME280;55834;50.870;4.606;2023-07-09T12:03:17;101158.50;;;24.60;44.00
68822;BME280;55834;50.870;4.606;2023-07-09T12:05:50;101161.69;;;25.09;43.27
68822;BME280;55834;50.870;4.606;2023-07-09T12:08:17;101172.38;;;25.10;43.10
68822;BME280;55834;50.870;4.606;2023-07-09T12:10:44;101183.13;;;25.65;42.14
68822;BME280;55834;50.870;4.606;2023-07-09T12:13:10;101198.59;;;25.84;41.11
68822;BME280;55834;50.870;4.606;2023-07-09T12:15:39;101194.50;;;25.15;42.68
68822;BME280;55834;50.870;4.606;2023-07-09T12:18:13;101181.63;;;24.85;43.78
68822;BME280;55834;50.870;4.606;2023-07-09T12:20:40;101191.53;;;25.18;43.37
68822;BME280;55834;50.870;4.606;2023-07-09T12:25:50;101253.38;;;25.33;43.85
68822;BME280;55834;50.870;4.606;2023-07-09T12:28:17;101286.44;;;25.25;43.98
68822;BME280;55834;50.870;4.606;2023-07-09T12:30:48;101311.59;;;25.37;43.95
68822;BME280;55834;50.870;4.606;2023-07-09T12:33:18;101330.91;;;25.21;43.19
68822;BME280;55834;50.870;4.606;2023-07-09T12:35:45;101353.50;;;24.86;44.71
68822;BME280;55834;50.870;4.606;2023-07-09T12:38:19;101358.16;;;24.95;45.54
68822;BME280;55834;50.870;4.606;2023-07-09T12:40:47;101387.28;;;25.03;46.04
68822;BME280;55834;50.870;4.606;2023-07-09T12:43:12;101400.19;;;25.33;47.67
68822;BME280;55834;50.870;4.606;2023-07-09T12:45:38;101376.69;;;25.56;47.29
68822;BME280;55834;50.870;4.606;2023-07-09T12:48:03;101340.97;;;25.41;46.83
68822;BME280;55834;50.870;4.606;2023-07-09T12:50:34;101324.22;;;22.89;53.79
68822;BME280;55834;50.870;4.606;2023-07-09T12:53:02;101311.16;;;22.58;55.90
68822;BME280;55834;50.870;4.606;2023-07-09T12:55:29;101322.75;;;23.59;54.27
68822;BME280;55834;50.870;4.606;2023-07-09T12:58:01;101308.16;;;24.09;51.04
68822;BME280;55834;50.870;4.606;2023-07-09T13:00:30;101307.19;;;24.11;51.62
68822;BME280;55834;50.870;4.606;2023-07-09T13:02:57;101305.13;;;24.14;51.44
68822;BME280;55834;50.870;4.606;2023-07-09T13:05:24;101280.69;;;24.04;51.19
68822;BME280;55834;50.870;4.606;2023-07-09T13:07:52;101266.94;;;23.72;52.52
68822;BME280;55834;50.870;4.606;2023-07-09T13:10:24;101236.44;;;21.57;58.94
68822;BME280;55834;50.870;4.606;2023-07-09T13:13:03;101233.03;;;22.34;58.17
68822;BME280;55834;50.870;4.606;2023-07-09T13:18:01;101215.28;;;21.11;62.16
68822;BME280;55834;50.870;4.606;2023-07-09T13:20:28;101205.81;;;22.13;59.25
68822;BME280;55834;50.870;4.606;2023-07-09T13:22:55;101199.66;;;20.77;62.46
68822;BME280;55834;50.870;4.606;2023-07-09T13:25:21;101196.50;;;21.11;62.05
68822;BME280;55834;50.870;4.606;2023-07-09T13:27:47;101198.03;;;21.15;62.25
68822;BME280;55834;50.870;4.606;2023-07-09T13:30:12;101181.91;;;22.59;59.38
68822;BME280;55834;50.870;4.606;2023-07-09T13:32:38;101187.41;;;22.32;58.96
68822;BME280;55834;50.870;4.606;2023-07-09T13:35:13;101198.59;;;22.51;58.63
68822;BME280;55834;50.870;4.606;2023-07-09T13:37:39;101199.22;;;22.55;59.34
68822;BME280;55834;50.870;4.606;2023-07-09T13:40:09;101203.69;;;23.17;56.94